KLM229 VOCI-VOTV
Flight info
| Callsign | KLM229 |
|---|---|
| Flight time | 0h 36m |
| Altitude | 12000 |
| Route | TUMLA1B TUMLA HIBUS |
| Aircraft | B738/M-SDE2E3FGHIRWXY/LB1 |
Departure
| Time | 2026-04-20 19:14 |
|---|---|
| Airport | Cochin International Airport (VOCI) |
Arrival
| Time | 2026-04-20 19:50 |
|---|---|
| Airport | Thiruvananthapuram International Airport (VOTV) |
| Time | Latitude | Longitude | Altitude | Speed | Heading |
|---|---|---|---|---|---|
| 2026-04-20 18:32 | 10.15655 | 76.39516 | 47 ft | 0 kts | 357° |
| 2026-04-20 18:54 | 10.15642 | 76.39517 | 47 ft | 3 kts | 357° |
| 2026-04-20 18:55 | 10.15622 | 76.39518 | 44 ft | 3 kts | 357° |
| 2026-04-20 18:55 | 10.15602 | 76.39519 | 44 ft | 3 kts | 357° |
| 2026-04-20 18:55 | 10.15585 | 76.39520 | 45 ft | 3 kts | 4° |
| 2026-04-20 18:55 | 10.15568 | 76.39516 | 45 ft | 3 kts | 47° |
| 2026-04-20 18:56 | 10.15560 | 76.39500 | 45 ft | 3 kts | 84° |
| 2026-04-20 18:56 | 10.15559 | 76.39489 | 47 ft | 0 kts | 87° |
| 2026-04-20 18:59 | 10.15560 | 76.39491 | 47 ft | 1 kts | 87° |
| 2026-04-20 18:59 | 10.15561 | 76.39509 | 47 ft | 4 kts | 83° |
| 2026-04-20 18:59 | 10.15563 | 76.39546 | 47 ft | 7 kts | 87° |
| 2026-04-20 18:59 | 10.15565 | 76.39600 | 47 ft | 9 kts | 91° |
| 2026-04-20 19:00 | 10.15563 | 76.39668 | 47 ft | 10 kts | 84° |
| 2026-04-20 19:00 | 10.15528 | 76.39730 | 47 ft | 12 kts | 158° |
| 2026-04-20 19:00 | 10.15442 | 76.39739 | 47 ft | 13 kts | 179° |
| 2026-04-20 19:00 | 10.15655 | 76.39516 | 47 ft | 0 kts | 357° |
| 2026-04-20 19:01 | 10.15657 | 76.39516 | 47 ft | 0 kts | 357° |
| 2026-04-20 19:01 | 10.15659 | 76.39516 | 47 ft | 0 kts | 357° |
| 2026-04-20 19:01 | 10.15660 | 76.39516 | 47 ft | 0 kts | 357° |
| 2026-04-20 19:02 | 10.15667 | 76.39522 | 45 ft | 5 kts | 45° |
| 2026-04-20 19:02 | 10.15645 | 76.39576 | 47 ft | 14 kts | 157° |
| 2026-04-20 19:02 | 10.15565 | 76.39609 | 47 ft | 11 kts | 124° |
| 2026-04-20 19:02 | 10.15552 | 76.39682 | 47 ft | 10 kts | 76° |
| 2026-04-20 19:03 | 10.15529 | 76.39738 | 47 ft | 10 kts | 167° |
| 2026-04-20 19:03 | 10.15459 | 76.39739 | 47 ft | 10 kts | 180° |
| 2026-04-20 19:03 | 10.15399 | 76.39731 | 47 ft | 1 kts | 210° |
| 2026-04-20 19:03 | 10.15392 | 76.39725 | 47 ft | 1 kts | 221° |
| 2026-04-20 19:04 | 10.15389 | 76.39718 | 46 ft | 1 kts | 248° |
| 2026-04-20 19:04 | 10.15390 | 76.39696 | 47 ft | 5 kts | 278° |
| 2026-04-20 19:04 | 10.15381 | 76.39646 | 47 ft | 10 kts | 253° |
| 2026-04-20 19:04 | 10.15367 | 76.39563 | 47 ft | 13 kts | 265° |
| 2026-04-20 19:05 | 10.15304 | 76.39510 | 47 ft | 13 kts | 191° |
| 2026-04-20 19:05 | 10.15265 | 76.39437 | 47 ft | 13 kts | 265° |
| 2026-04-20 19:05 | 10.15263 | 76.39350 | 47 ft | 12 kts | 274° |
| 2026-04-20 19:05 | 10.15261 | 76.39265 | 47 ft | 12 kts | 261° |
| 2026-04-20 19:06 | 10.15254 | 76.39182 | 47 ft | 12 kts | 267° |
| 2026-04-20 19:06 | 10.15251 | 76.39101 | 47 ft | 11 kts | 267° |
| 2026-04-20 19:06 | 10.15247 | 76.39023 | 47 ft | 11 kts | 267° |
| 2026-04-20 19:06 | 10.15245 | 76.38946 | 47 ft | 11 kts | 269° |
| 2026-04-20 19:07 | 10.15242 | 76.38872 | 47 ft | 10 kts | 268° |
| 2026-04-20 19:07 | 10.15240 | 76.38800 | 47 ft | 10 kts | 268° |
| 2026-04-20 19:07 | 10.15238 | 76.38730 | 47 ft | 10 kts | 268° |
| 2026-04-20 19:07 | 10.15236 | 76.38661 | 47 ft | 10 kts | 268° |
| 2026-04-20 19:08 | 10.15234 | 76.38595 | 47 ft | 9 kts | 268° |
| 2026-04-20 19:08 | 10.15170 | 76.38508 | 47 ft | 6 kts | 181° |
| 2026-04-20 19:08 | 10.15155 | 76.38508 | 44 ft | 0 kts | 178° |
| 2026-04-20 19:09 | 10.15153 | 76.38508 | 44 ft | 0 kts | 178° |
| 2026-04-20 19:09 | 10.15150 | 76.38509 | 45 ft | 1 kts | 177° |
| 2026-04-20 19:09 | 10.15147 | 76.38509 | 45 ft | 0 kts | 176° |
| 2026-04-20 19:09 | 10.15145 | 76.38509 | 46 ft | 0 kts | 176° |
| 2026-04-20 19:10 | 10.15139 | 76.38509 | 46 ft | 1 kts | 174° |
| 2026-04-20 19:10 | 10.15129 | 76.38511 | 46 ft | 2 kts | 172° |
| 2026-04-20 19:10 | 10.15114 | 76.38513 | 46 ft | 2 kts | 173° |
| 2026-04-20 19:10 | 10.15095 | 76.38515 | 46 ft | 3 kts | 173° |
| 2026-04-20 19:11 | 10.15076 | 76.38522 | 46 ft | 3 kts | 149° |
| 2026-04-20 19:11 | 10.15063 | 76.38537 | 46 ft | 3 kts | 124° |
| 2026-04-20 19:11 | 10.15056 | 76.38558 | 44 ft | 4 kts | 99° |
| 2026-04-20 19:11 | 10.15057 | 76.38589 | 47 ft | 5 kts | 88° |
| 2026-04-20 19:12 | 10.15057 | 76.38592 | 47 ft | 0 kts | 88° |
| 2026-04-20 19:13 | 10.15062 | 76.38737 | 48 ft | 47 kts | 88° |
| 2026-04-20 19:13 | 10.15089 | 76.39438 | 47 ft | 147 kts | 89° |
| 2026-04-20 19:13 | 10.15084 | 76.40685 | 519 ft | 198 kts | 91° |
| 2026-04-20 19:14 | 10.15065 | 76.42187 | 1249 ft | 232 kts | 92° |
| 2026-04-20 19:14 | 10.15106 | 76.43947 | 1938 ft | 254 kts | 87° |
| 2026-04-20 19:14 | 10.15314 | 76.45738 | 3113 ft | 247 kts | 82° |
| 2026-04-20 19:14 | 10.15340 | 76.47421 | 4132 ft | 240 kts | 106° |
| 2026-04-20 19:15 | 10.14456 | 76.48930 | 4500 ft | 264 kts | 134° |
| 2026-04-20 19:15 | 10.13159 | 76.50273 | 5403 ft | 266 kts | 133° |
| 2026-04-20 19:15 | 10.11883 | 76.51667 | 5828 ft | 271 kts | 131° |
| 2026-04-20 19:15 | 10.10651 | 76.53097 | 6021 ft | 275 kts | 130° |
| 2026-04-20 19:16 | 10.09417 | 76.54603 | 6659 ft | 279 kts | 128° |
| 2026-04-20 19:16 | 10.08206 | 76.56125 | 7533 ft | 279 kts | 127° |
| 2026-04-20 19:16 | 10.07003 | 76.57669 | 7845 ft | 280 kts | 126° |
| 2026-04-20 19:16 | 10.05807 | 76.59223 | 7878 ft | 279 kts | 126° |
| 2026-04-20 19:17 | 10.04618 | 76.60779 | 7884 ft | 279 kts | 126° |
| 2026-04-20 19:17 | 10.03430 | 76.62340 | 7893 ft | 279 kts | 126° |
| 2026-04-20 19:17 | 10.02243 | 76.63903 | 7894 ft | 280 kts | 126° |
| 2026-04-20 19:17 | 10.01070 | 76.65448 | 7908 ft | 280 kts | 126° |
| 2026-04-20 19:18 | 9.99880 | 76.67014 | 7906 ft | 280 kts | 127° |
| 2026-04-20 19:18 | 9.98446 | 76.68364 | 7945 ft | 287 kts | 145° |
| 2026-04-20 19:18 | 9.96726 | 76.69425 | 8667 ft | 289 kts | 146° |
| 2026-04-20 19:18 | 9.94999 | 76.70471 | 9628 ft | 290 kts | 146° |
| 2026-04-20 19:19 | 9.93252 | 76.71535 | 10335 ft | 299 kts | 147° |
| 2026-04-20 19:19 | 9.91391 | 76.72675 | 10545 ft | 326 kts | 147° |
| 2026-04-20 19:19 | 9.89381 | 76.73912 | 10724 ft | 349 kts | 147° |
| 2026-04-20 19:19 | 9.87260 | 76.75220 | 11130 ft | 362 kts | 147° |
| 2026-04-20 19:20 | 9.85125 | 76.76537 | 11744 ft | 367 kts | 147° |
| 2026-04-20 19:20 | 9.82936 | 76.77889 | 12457 ft | 370 kts | 147° |
| 2026-04-20 19:20 | 9.80728 | 76.79254 | 13168 ft | 374 kts | 148° |
| 2026-04-20 19:20 | 9.78496 | 76.80636 | 13863 ft | 378 kts | 148° |
| 2026-04-20 19:21 | 9.76238 | 76.82034 | 14485 ft | 382 kts | 148° |
| 2026-04-20 19:21 | 9.73959 | 76.83445 | 15161 ft | 384 kts | 148° |
| 2026-04-20 19:21 | 9.71692 | 76.84849 | 15666 ft | 380 kts | 148° |
| 2026-04-20 19:21 | 9.69437 | 76.86244 | 15909 ft | 382 kts | 148° |
| 2026-04-20 19:22 | 9.67118 | 76.87680 | 15912 ft | 397 kts | 148° |
| 2026-04-20 19:22 | 9.64739 | 76.89154 | 15924 ft | 403 kts | 148° |
| 2026-04-20 19:22 | 9.62386 | 76.90610 | 15911 ft | 401 kts | 148° |
| 2026-04-20 19:22 | 9.60007 | 76.92082 | 15915 ft | 401 kts | 148° |
| 2026-04-20 19:23 | 9.57634 | 76.93550 | 15915 ft | 400 kts | 148° |
| 2026-04-20 19:23 | 9.55255 | 76.95021 | 15921 ft | 400 kts | 148° |
| 2026-04-20 19:23 | 9.52826 | 76.96392 | 15911 ft | 400 kts | 158° |
| 2026-04-20 19:23 | 9.50105 | 76.96974 | 15939 ft | 401 kts | 177° |
| 2026-04-20 19:24 | 9.47338 | 76.96680 | 15926 ft | 403 kts | 192° |
| 2026-04-20 19:24 | 9.44613 | 76.96017 | 15933 ft | 403 kts | 193° |
| 2026-04-20 19:24 | 9.41892 | 76.95327 | 15908 ft | 403 kts | 193° |
| 2026-04-20 19:24 | 9.39207 | 76.94647 | 15918 ft | 403 kts | 193° |
| 2026-04-20 19:25 | 9.36483 | 76.93967 | 15916 ft | 403 kts | 192° |
| 2026-04-20 19:25 | 9.33754 | 76.93297 | 15898 ft | 403 kts | 192° |
| 2026-04-20 19:25 | 9.31026 | 76.92635 | 15898 ft | 403 kts | 193° |
| 2026-04-20 19:25 | 9.28295 | 76.91977 | 15895 ft | 403 kts | 192° |
| 2026-04-20 19:26 | 9.25563 | 76.91320 | 15889 ft | 403 kts | 193° |
| 2026-04-20 19:26 | 9.22832 | 76.90664 | 15891 ft | 403 kts | 192° |
| 2026-04-20 19:26 | 9.20104 | 76.90009 | 15890 ft | 403 kts | 193° |
| 2026-04-20 19:26 | 9.17411 | 76.89362 | 15896 ft | 403 kts | 193° |
| 2026-04-20 19:27 | 9.14707 | 76.88712 | 15875 ft | 393 kts | 193° |
| 2026-04-20 19:27 | 9.12103 | 76.88086 | 15870 ft | 376 kts | 193° |
| 2026-04-20 19:27 | 9.09599 | 76.87484 | 15632 ft | 367 kts | 193° |
| 2026-04-20 19:27 | 9.07135 | 76.86891 | 15297 ft | 361 kts | 193° |
| 2026-04-20 19:28 | 9.04708 | 76.86307 | 14903 ft | 356 kts | 192° |
| 2026-04-20 19:28 | 9.02310 | 76.85729 | 14494 ft | 352 kts | 192° |
| 2026-04-20 19:28 | 8.99940 | 76.85159 | 14072 ft | 350 kts | 192° |
| 2026-04-20 19:28 | 8.97583 | 76.84592 | 13650 ft | 347 kts | 192° |
| 2026-04-20 19:29 | 8.95273 | 76.84036 | 13189 ft | 344 kts | 192° |
| 2026-04-20 19:29 | 8.92952 | 76.83477 | 12760 ft | 341 kts | 192° |
| 2026-04-20 19:29 | 8.90654 | 76.82924 | 12353 ft | 338 kts | 192° |
| 2026-04-20 19:29 | 8.88377 | 76.82376 | 11943 ft | 335 kts | 192° |
| 2026-04-20 19:30 | 8.86119 | 76.81833 | 11537 ft | 332 kts | 192° |
| 2026-04-20 19:30 | 8.83862 | 76.81412 | 11130 ft | 328 kts | 179° |
| 2026-04-20 19:30 | 8.81649 | 76.81783 | 10756 ft | 321 kts | 158° |
| 2026-04-20 19:30 | 8.79734 | 76.82843 | 10596 ft | 310 kts | 144° |
| 2026-04-20 19:31 | 8.77961 | 76.84058 | 10492 ft | 305 kts | 143° |
| 2026-04-20 19:31 | 8.76249 | 76.85257 | 10394 ft | 304 kts | 143° |
| 2026-04-20 19:31 | 8.74510 | 76.86473 | 10276 ft | 302 kts | 143° |
| 2026-04-20 19:31 | 8.72805 | 76.87656 | 10148 ft | 292 kts | 143° |
| 2026-04-20 19:32 | 8.71151 | 76.88795 | 10029 ft | 283 kts | 143° |
| 2026-04-20 19:32 | 8.69534 | 76.89905 | 9785 ft | 280 kts | 143° |
| 2026-04-20 19:32 | 8.67929 | 76.91006 | 9501 ft | 278 kts | 143° |
| 2026-04-20 19:32 | 8.66334 | 76.92098 | 9209 ft | 276 kts | 143° |
| 2026-04-20 19:33 | 8.64772 | 76.93165 | 8927 ft | 274 kts | 143° |
| 2026-04-20 19:33 | 8.63200 | 76.94239 | 8654 ft | 272 kts | 143° |
| 2026-04-20 19:33 | 8.61638 | 76.95305 | 8364 ft | 270 kts | 143° |
| 2026-04-20 19:33 | 8.60086 | 76.96364 | 8092 ft | 268 kts | 143° |
| 2026-04-20 19:34 | 8.58545 | 76.97416 | 7812 ft | 267 kts | 143° |
| 2026-04-20 19:34 | 8.57014 | 76.98459 | 7544 ft | 264 kts | 143° |
| 2026-04-20 19:34 | 8.55495 | 76.99494 | 7278 ft | 262 kts | 143° |
| 2026-04-20 19:34 | 8.53989 | 77.00522 | 7014 ft | 260 kts | 143° |
| 2026-04-20 19:35 | 8.52512 | 77.01529 | 6758 ft | 259 kts | 143° |
| 2026-04-20 19:35 | 8.51023 | 77.02545 | 6486 ft | 257 kts | 143° |
| 2026-04-20 19:35 | 8.49542 | 77.03555 | 6224 ft | 256 kts | 143° |
| 2026-04-20 19:35 | 8.48069 | 77.04560 | 5950 ft | 255 kts | 144° |
| 2026-04-20 19:36 | 8.46603 | 77.05560 | 5680 ft | 254 kts | 144° |
| 2026-04-20 19:36 | 8.45145 | 77.06554 | 5416 ft | 252 kts | 144° |
| 2026-04-20 19:36 | 8.43698 | 77.07540 | 5150 ft | 251 kts | 145° |
| 2026-04-20 19:36 | 8.42256 | 77.08523 | 4895 ft | 249 kts | 145° |
| 2026-04-20 19:37 | 8.40821 | 77.09500 | 4640 ft | 248 kts | 146° |
| 2026-04-20 19:37 | 8.39362 | 77.10374 | 4357 ft | 247 kts | 161° |
| 2026-04-20 19:37 | 8.37670 | 77.10469 | 4102 ft | 246 kts | 193° |
| 2026-04-20 19:37 | 8.36149 | 77.09716 | 3850 ft | 244 kts | 217° |
| 2026-04-20 19:38 | 8.34913 | 77.08547 | 3608 ft | 243 kts | 229° |
| 2026-04-20 19:38 | 8.34210 | 77.07021 | 3335 ft | 244 kts | 264° |
| 2026-04-20 19:38 | 8.34545 | 77.05375 | 3109 ft | 243 kts | 300° |
| 2026-04-20 19:38 | 8.35653 | 77.04134 | 2897 ft | 235 kts | 316° |
| 2026-04-20 19:39 | 8.36832 | 77.03028 | 2637 ft | 228 kts | 315° |
| 2026-04-20 19:39 | 8.37965 | 77.01950 | 2407 ft | 219 kts | 315° |
| 2026-04-20 19:39 | 8.39034 | 77.00922 | 2165 ft | 212 kts | 315° |
| 2026-04-20 19:39 | 8.40074 | 76.99918 | 2016 ft | 201 kts | 315° |
| 2026-04-20 19:40 | 8.41041 | 76.98983 | 1977 ft | 182 kts | 315° |
| 2026-04-20 19:40 | 8.41928 | 76.98182 | 1965 ft | 162 kts | 318° |
| 2026-04-20 19:40 | 8.42918 | 76.97704 | 1976 ft | 162 kts | 356° |
| 2026-04-20 19:40 | 8.44015 | 76.98077 | 1971 ft | 175 kts | 40° |
| 2026-04-20 19:41 | 8.44594 | 76.99120 | 1974 ft | 172 kts | 79° |
| 2026-04-20 19:41 | 8.44840 | 77.00360 | 1985 ft | 185 kts | 78° |
| 2026-04-20 19:41 | 8.45109 | 77.01621 | 1972 ft | 183 kts | 78° |
| 2026-04-20 19:41 | 8.45381 | 77.02876 | 1969 ft | 183 kts | 78° |
| 2026-04-20 19:42 | 8.45647 | 77.04110 | 1968 ft | 182 kts | 78° |
| 2026-04-20 19:42 | 8.45644 | 77.05367 | 1956 ft | 180 kts | 111° |
| 2026-04-20 19:42 | 8.44889 | 77.06336 | 1983 ft | 176 kts | 141° |
| 2026-04-20 19:42 | 8.43964 | 77.07158 | 1974 ft | 178 kts | 139° |
| 2026-04-20 19:43 | 8.43041 | 77.07999 | 1980 ft | 179 kts | 139° |
| 2026-04-20 19:43 | 8.42116 | 77.08844 | 1990 ft | 180 kts | 139° |
| 2026-04-20 19:43 | 8.41184 | 77.09693 | 1982 ft | 180 kts | 139° |
| 2026-04-20 19:43 | 8.40232 | 77.10512 | 1976 ft | 180 kts | 147° |
| 2026-04-20 19:44 | 8.39077 | 77.10927 | 1969 ft | 177 kts | 180° |
| 2026-04-20 19:44 | 8.37971 | 77.10518 | 1983 ft | 174 kts | 221° |
| 2026-04-20 19:44 | 8.37271 | 77.09527 | 1996 ft | 174 kts | 239° |
| 2026-04-20 19:44 | 8.36678 | 77.08454 | 1983 ft | 175 kts | 246° |
| 2026-04-20 19:45 | 8.36593 | 77.07246 | 1983 ft | 175 kts | 279° |
| 2026-04-20 19:45 | 8.36848 | 77.06054 | 1972 ft | 170 kts | 282° |
| 2026-04-20 19:45 | 8.37104 | 77.04928 | 1959 ft | 159 kts | 282° |
| 2026-04-20 19:45 | 8.37354 | 77.03853 | 1964 ft | 156 kts | 282° |
| 2026-04-20 19:46 | 8.37632 | 77.02792 | 1971 ft | 157 kts | 291° |
| 2026-04-20 19:46 | 8.38315 | 77.01940 | 1990 ft | 157 kts | 314° |
| 2026-04-20 19:46 | 8.39067 | 77.01126 | 1983 ft | 160 kts | 312° |
| 2026-04-20 19:46 | 8.39843 | 77.00335 | 1943 ft | 162 kts | 314° |
| 2026-04-20 19:47 | 8.40646 | 76.99537 | 1783 ft | 162 kts | 314° |
| 2026-04-20 19:47 | 8.41446 | 76.98743 | 1577 ft | 160 kts | 314° |
| 2026-04-20 19:47 | 8.42225 | 76.97969 | 1374 ft | 156 kts | 314° |
| 2026-04-20 19:47 | 8.42996 | 76.97202 | 1180 ft | 156 kts | 315° |
| 2026-04-20 19:48 | 8.43769 | 76.96434 | 970 ft | 155 kts | 315° |
| 2026-04-20 19:48 | 8.44537 | 76.95672 | 780 ft | 155 kts | 315° |
| 2026-04-20 19:48 | 8.45294 | 76.94893 | 602 ft | 157 kts | 312° |
| 2026-04-20 19:48 | 8.46008 | 76.94063 | 382 ft | 160 kts | 313° |
| 2026-04-20 19:49 | 8.46805 | 76.93298 | 209 ft | 156 kts | 320° |
| 2026-04-20 19:49 | 8.47625 | 76.92582 | 40 ft | 154 kts | 317° |
| 2026-04-20 19:49 | 8.48343 | 76.91869 | 22 ft | 129 kts | 316° |
| 2026-04-20 19:49 | 8.48836 | 76.91395 | 27 ft | 51 kts | 313° |
| 2026-04-20 19:50 | 8.48909 | 76.91304 | 25 ft | 13 kts | 309° |
| 2026-04-20 19:50 | 8.48969 | 76.91240 | 26 ft | 12 kts | 323° |
| 2026-04-20 19:50 | 8.49040 | 76.91193 | 24 ft | 12 kts | 320° |
| 2026-04-20 19:50 | 8.49096 | 76.91130 | 24 ft | 12 kts | 307° |
| 2026-04-20 19:51 | 8.49151 | 76.91070 | 22 ft | 12 kts | 317° |
| 2026-04-20 19:51 | 8.49188 | 76.91000 | 25 ft | 11 kts | 285° |
| 2026-04-20 19:51 | 8.49216 | 76.90927 | 26 ft | 11 kts | 304° |
| 2026-04-20 19:51 | 8.49281 | 76.90899 | 27 ft | 11 kts | 25° |
| 2026-04-20 19:52 | 8.49281 | 76.90961 | 23 ft | 11 kts | 142° |
| 2026-04-20 19:52 | 8.49222 | 76.91011 | 22 ft | 11 kts | 137° |
| 2026-04-20 19:52 | 8.49166 | 76.91066 | 22 ft | 11 kts | 135° |
| 2026-04-20 19:52 | 8.49111 | 76.91119 | 23 ft | 11 kts | 136° |
| 2026-04-20 19:53 | 8.49058 | 76.91171 | 23 ft | 10 kts | 138° |
| 2026-04-20 19:53 | 8.49006 | 76.91221 | 24 ft | 10 kts | 136° |
| 2026-04-20 19:53 | 8.48955 | 76.91269 | 26 ft | 10 kts | 137° |
| 2026-04-20 19:53 | 8.48901 | 76.91323 | 24 ft | 12 kts | 135° |
| 2026-04-20 19:54 | 8.48843 | 76.91381 | 25 ft | 12 kts | 135° |
| 2026-04-20 19:54 | 8.48795 | 76.91440 | 25 ft | 9 kts | 110° |
| 2026-04-20 19:54 | 8.48814 | 76.91493 | 27 ft | 2 kts | 49° |
| 2026-04-20 19:54 | 8.48826 | 76.91505 | 26 ft | 3 kts | 43° |
| 2026-04-20 19:55 | 8.48845 | 76.91524 | 25 ft | 5 kts | 46° |
| 2026-04-20 19:55 | 8.48868 | 76.91565 | 23 ft | 10 kts | 83° |
| 2026-04-20 19:55 | 8.48818 | 76.91638 | 25 ft | 17 kts | 136° |
| 2026-04-20 19:55 | 8.48719 | 76.91733 | 25 ft | 23 kts | 137° |
| 2026-04-20 19:56 | 8.48600 | 76.91848 | 22 ft | 22 kts | 136° |
| 2026-04-20 19:56 | 8.48504 | 76.91942 | 22 ft | 12 kts | 137° |
| 2026-04-20 19:56 | 8.48488 | 76.92007 | 22 ft | 10 kts | 60° |
| 2026-04-20 19:56 | 8.48536 | 76.92060 | 22 ft | 10 kts | 47° |
| 2026-04-20 19:57 | 8.48584 | 76.92108 | 22 ft | 10 kts | 46° |
| 2026-04-20 19:57 | 8.48628 | 76.92157 | 22 ft | 9 kts | 50° |
| 2026-04-20 19:57 | 8.48632 | 76.92161 | 22 ft | 0 kts | 45° |